sensor_id;sensor_type;location;lat;lon;timestamp;P1;durP1;ratioP1;P2;durP2;ratioP2
64907;SDS011;69061;52.236;5.188;2023-05-28T00:00:00;21.67;;;9.80;;
64907;SDS011;69061;52.236;5.188;2023-05-28T00:02:26;24.73;;;10.85;;
64907;SDS011;69061;52.236;5.188;2023-05-28T00:04:53;24.33;;;9.95;;
64907;SDS011;69061;52.236;5.188;2023-05-28T00:07:21;25.42;;;9.68;;
64907;SDS011;69061;52.236;5.188;2023-05-28T00:09:48;24.73;;;10.43;;
64907;SDS011;69061;52.236;5.188;2023-05-28T00:12:15;26.92;;;10.45;;
64907;SDS011;69061;52.236;5.188;2023-05-28T00:14:42;25.95;;;10.65;;
64907;SDS011;69061;52.236;5.188;2023-05-28T00:17:08;29.48;;;10.95;;
64907;SDS011;69061;52.236;5.188;2023-05-28T00:19:35;25.60;;;9.95;;
64907;SDS011;69061;52.236;5.188;2023-05-28T00:22:02;30.80;;;11.85;;
64907;SDS011;69061;52.236;5.188;2023-05-28T00:24:30;20.27;;;8.10;;
64907;SDS011;69061;52.236;5.188;2023-05-28T00:26:56;24.75;;;9.35;;
64907;SDS011;69061;52.236;5.188;2023-05-28T00:29:23;25.55;;;11.50;;
64907;SDS011;69061;52.236;5.188;2023-05-28T00:31:51;20.95;;;9.82;;
64907;SDS011;69061;52.236;5.188;2023-05-28T00:34:20;33.63;;;12.18;;
64907;SDS011;69061;52.236;5.188;2023-05-28T00:36:47;26.52;;;10.77;;
64907;SDS011;69061;52.236;5.188;2023-05-28T00:39:13;27.30;;;10.95;;
64907;SDS011;69061;52.236;5.188;2023-05-28T00:41:41;23.48;;;10.35;;
64907;SDS011;69061;52.236;5.188;2023-05-28T00:44:08;24.90;;;9.93;;
64907;SDS011;69061;52.236;5.188;2023-05-28T00:46:35;23.38;;;10.32;;
64907;SDS011;69061;52.236;5.188;2023-05-28T00:49:02;27.00;;;10.40;;
64907;SDS011;69061;52.236;5.188;2023-05-28T00:51:29;24.02;;;10.90;;
64907;SDS011;69061;52.236;5.188;2023-05-28T00:53:56;31.58;;;10.98;;
64907;SDS011;69061;52.236;5.188;2023-05-28T00:56:23;25.73;;;9.70;;
64907;SDS011;69061;52.236;5.188;2023-05-28T00:58:52;27.10;;;11.07;;
64907;SDS011;69061;52.236;5.188;2023-05-28T01:01:20;19.38;;;9.43;;
64907;SDS011;69061;52.236;5.188;2023-05-28T01:03:48;25.10;;;10.95;;
64907;SDS011;69061;52.236;5.188;2023-05-28T01:06:16;25.20;;;10.25;;
64907;SDS011;69061;52.236;5.188;2023-05-28T01:08:46;21.30;;;10.93;;
64907;SDS011;69061;52.236;5.188;2023-05-28T01:11:14;23.92;;;10.18;;
64907;SDS011;69061;52.236;5.188;2023-05-28T01:13:43;25.23;;;10.15;;
64907;SDS011;69061;52.236;5.188;2023-05-28T01:16:12;28.52;;;9.00;;
64907;SDS011;69061;52.236;5.188;2023-05-28T01:18:40;23.67;;;10.57;;
64907;SDS011;69061;52.236;5.188;2023-05-28T01:21:09;26.05;;;9.82;;
64907;SDS011;69061;52.236;5.188;2023-05-28T01:23:38;25.50;;;10.82;;
64907;SDS011;69061;52.236;5.188;2023-05-28T01:26:08;28.95;;;11.43;;
64907;SDS011;69061;52.236;5.188;2023-05-28T01:28:35;19.17;;;9.50;;
64907;SDS011;69061;52.236;5.188;2023-05-28T01:33:35;25.17;;;10.07;;
64907;SDS011;69061;52.236;5.188;2023-05-28T01:36:04;21.33;;;9.32;;
64907;SDS011;69061;52.236;5.188;2023-05-28T01:38:33;26.45;;;10.82;;
64907;SDS011;69061;52.236;5.188;2023-05-28T01:41:03;22.35;;;10.00;;
64907;SDS011;69061;52.236;5.188;2023-05-28T01:43:31;20.02;;;9.30;;
64907;SDS011;69061;52.236;5.188;2023-05-28T01:45:58;29.40;;;9.90;;
64907;SDS011;69061;52.236;5.188;2023-05-28T01:48:25;24.40;;;9.93;;
64907;SDS011;69061;52.236;5.188;2023-05-28T01:50:52;23.38;;;10.50;;
64907;SDS011;69061;52.236;5.188;2023-05-28T01:53:19;28.58;;;11.15;;
64907;SDS011;69061;52.236;5.188;2023-05-28T01:55:46;25.10;;;9.27;;
64907;SDS011;69061;52.236;5.188;2023-05-28T01:58:14;21.27;;;9.02;;
64907;SDS011;69061;52.236;5.188;2023-05-28T02:00:42;21.65;;;10.77;;
64907;SDS011;69061;52.236;5.188;2023-05-28T02:03:13;21.38;;;9.68;;
64907;SDS011;69061;52.236;5.188;2023-05-28T02:05:39;27.33;;;11.10;;
64907;SDS011;69061;52.236;5.188;2023-05-28T02:08:06;23.83;;;10.90;;
64907;SDS011;69061;52.236;5.188;2023-05-28T02:10:32;23.92;;;10.75;;
64907;SDS011;69061;52.236;5.188;2023-05-28T02:12:59;24.45;;;9.98;;
64907;SDS011;69061;52.236;5.188;2023-05-28T02:15:27;25.70;;;10.43;;
64907;SDS011;69061;52.236;5.188;2023-05-28T02:17:54;26.63;;;11.20;;
64907;SDS011;69061;52.236;5.188;2023-05-28T02:20:21;24.42;;;10.60;;
64907;SDS011;69061;52.236;5.188;2023-05-28T02:22:48;22.83;;;9.75;;
64907;SDS011;69061;52.236;5.188;2023-05-28T02:25:15;25.85;;;11.27;;
64907;SDS011;69061;52.236;5.188;2023-05-28T02:27:42;20.10;;;9.57;;
64907;SDS011;69061;52.236;5.188;2023-05-28T02:30:09;37.97;;;10.93;;
64907;SDS011;69061;52.236;5.188;2023-05-28T02:32:40;28.30;;;11.55;;
64907;SDS011;69061;52.236;5.188;2023-05-28T02:35:07;24.52;;;10.80;;
64907;SDS011;69061;52.236;5.188;2023-05-28T02:37:34;22.98;;;10.60;;
64907;SDS011;69061;52.236;5.188;2023-05-28T02:40:01;20.02;;;10.40;;
64907;SDS011;69061;52.236;5.188;2023-05-28T02:42:28;22.85;;;11.70;;
64907;SDS011;69061;52.236;5.188;2023-05-28T02:44:55;27.45;;;11.77;;
64907;SDS011;69061;52.236;5.188;2023-05-28T02:47:21;24.13;;;11.57;;
64907;SDS011;69061;52.236;5.188;2023-05-28T02:49:49;23.45;;;10.18;;
64907;SDS011;69061;52.236;5.188;2023-05-28T02:52:16;21.40;;;10.38;;
64907;SDS011;69061;52.236;5.188;2023-05-28T02:54:43;19.35;;;10.23;;
64907;SDS011;69061;52.236;5.188;2023-05-28T02:57:11;22.33;;;9.73;;
64907;SDS011;69061;52.236;5.188;2023-05-28T02:59:37;19.38;;;10.05;;
64907;SDS011;69061;52.236;5.188;2023-05-28T03:02:04;23.75;;;10.40;;
64907;SDS011;69061;52.236;5.188;2023-05-28T03:04:31;26.33;;;10.68;;
64907;SDS011;69061;52.236;5.188;2023-05-28T03:07:01;27.98;;;11.30;;
64907;SDS011;69061;52.236;5.188;2023-05-28T03:09:28;26.52;;;11.10;;
64907;SDS011;69061;52.236;5.188;2023-05-28T03:11:54;22.40;;;9.93;;
64907;SDS011;69061;52.236;5.188;2023-05-28T03:14:21;25.70;;;10.98;;
64907;SDS011;69061;52.236;5.188;2023-05-28T03:16:47;25.38;;;11.68;;
64907;SDS011;69061;52.236;5.188;2023-05-28T03:19:14;27.50;;;10.45;;
64907;SDS011;69061;52.236;5.188;2023-05-28T03:21:40;23.45;;;10.48;;
64907;SDS011;69061;52.236;5.188;2023-05-28T03:24:09;22.33;;;10.77;;
64907;SDS011;69061;52.236;5.188;2023-05-28T03:26:35;30.40;;;10.63;;
64907;SDS011;69061;52.236;5.188;2023-05-28T03:29:02;23.48;;;10.40;;
64907;SDS011;69061;52.236;5.188;2023-05-28T03:31:29;28.77;;;11.63;;
64907;SDS011;69061;52.236;5.188;2023-05-28T03:33:55;24.80;;;9.57;;
64907;SDS011;69061;52.236;5.188;2023-05-28T03:36:22;23.38;;;10.38;;
64907;SDS011;69061;52.236;5.188;2023-05-28T03:38:49;29.48;;;12.48;;
64907;SDS011;69061;52.236;5.188;2023-05-28T03:41:17;24.92;;;10.65;;
64907;SDS011;69061;52.236;5.188;2023-05-28T03:43:45;25.20;;;10.02;;
64907;SDS011;69061;52.236;5.188;2023-05-28T03:46:12;20.77;;;9.90;;
64907;SDS011;69061;52.236;5.188;2023-05-28T03:48:38;30.38;;;11.73;;
64907;SDS011;69061;52.236;5.188;2023-05-28T03:51:05;19.98;;;10.25;;
64907;SDS011;69061;52.236;5.188;2023-05-28T03:53:31;25.45;;;10.25;;
64907;SDS011;69061;52.236;5.188;2023-05-28T03:55:58;19.77;;;9.50;;
64907;SDS011;69061;52.236;5.188;2023-05-28T03:58:26;25.73;;;11.32;;
64907;SDS011;69061;52.236;5.188;2023-05-28T04:00:53;25.90;;;11.10;;
64907;SDS011;69061;52.236;5.188;2023-05-28T04:03:19;22.63;;;10.80;;
64907;SDS011;69061;52.236;5.188;2023-05-28T04:05:46;24.15;;;9.75;;
64907;SDS011;69061;52.236;5.188;2023-05-28T04:08:12;21.98;;;10.68;;
64907;SDS011;69061;52.236;5.188;2023-05-28T04:10:39;22.15;;;10.35;;
64907;SDS011;69061;52.236;5.188;2023-05-28T04:13:06;22.80;;;10.70;;
64907;SDS011;69061;52.236;5.188;2023-05-28T04:15:34;25.75;;;10.35;;
64907;SDS011;69061;52.236;5.188;2023-05-28T04:18:01;24.33;;;9.27;;
64907;SDS011;69061;52.236;5.188;2023-05-28T04:20:27;20.30;;;10.10;;
64907;SDS011;69061;52.236;5.188;2023-05-28T04:22:54;24.10;;;12.23;;
64907;SDS011;69061;52.236;5.188;2023-05-28T04:25:21;22.77;;;8.90;;
64907;SDS011;69061;52.236;5.188;2023-05-28T04:27:47;23.30;;;9.90;;
64907;SDS011;69061;52.236;5.188;2023-05-28T04:30:14;21.35;;;9.40;;
64907;SDS011;69061;52.236;5.188;2023-05-28T04:32:42;27.17;;;9.75;;
64907;SDS011;69061;52.236;5.188;2023-05-28T04:35:08;27.20;;;10.52;;
64907;SDS011;69061;52.236;5.188;2023-05-28T04:37:36;33.30;;;11.60;;
64907;SDS011;69061;52.236;5.188;2023-05-28T04:40:04;26.00;;;10.70;;
64907;SDS011;69061;52.236;5.188;2023-05-28T04:42:32;22.50;;;10.32;;
64907;SDS011;69061;52.236;5.188;2023-05-28T04:44:59;31.58;;;10.57;;
64907;SDS011;69061;52.236;5.188;2023-05-28T04:47:26;24.38;;;10.27;;
64907;SDS011;69061;52.236;5.188;2023-05-28T04:49:54;26.75;;;10.18;;
64907;SDS011;69061;52.236;5.188;2023-05-28T04:52:22;24.77;;;13.13;;
64907;SDS011;69061;52.236;5.188;2023-05-28T04:54:48;20.77;;;10.43;;
64907;SDS011;69061;52.236;5.188;2023-05-28T04:57:15;21.40;;;10.90;;
64907;SDS011;69061;52.236;5.188;2023-05-28T04:59:42;24.25;;;10.93;;
64907;SDS011;69061;52.236;5.188;2023-05-28T05:02:08;21.38;;;10.18;;
64907;SDS011;69061;52.236;5.188;2023-05-28T05:04:35;25.83;;;11.18;;
64907;SDS011;69061;52.236;5.188;2023-05-28T05:07:03;22.40;;;10.43;;
64907;SDS011;69061;52.236;5.188;2023-05-28T05:09:30;24.52;;;10.40;;
64907;SDS011;69061;52.236;5.188;2023-05-28T05:11:57;22.42;;;10.55;;
64907;SDS011;69061;52.236;5.188;2023-05-28T05:14:23;21.50;;;10.20;;
64907;SDS011;69061;52.236;5.188;2023-05-28T05:16:50;22.48;;;9.60;;
64907;SDS011;69061;52.236;5.188;2023-05-28T05:19:16;20.88;;;8.98;;
64907;SDS011;69061;52.236;5.188;2023-05-28T05:21:43;23.15;;;9.90;;
64907;SDS011;69061;52.236;5.188;2023-05-28T05:24:11;19.98;;;9.15;;
64907;SDS011;69061;52.236;5.188;2023-05-28T05:26:38;19.77;;;9.15;;
64907;SDS011;69061;52.236;5.188;2023-05-28T05:29:05;27.80;;;11.15;;
64907;SDS011;69061;52.236;5.188;2023-05-28T05:31:31;22.65;;;9.50;;
64907;SDS011;69061;52.236;5.188;2023-05-28T05:33:58;25.23;;;10.45;;
64907;SDS011;69061;52.236;5.188;2023-05-28T05:36:24;22.55;;;9.45;;
64907;SDS011;69061;52.236;5.188;2023-05-28T05:38:51;19.10;;;9.32;;
64907;SDS011;69061;52.236;5.188;2023-05-28T05:41:19;27.83;;;12.00;;
64907;SDS011;69061;52.236;5.188;2023-05-28T05:43:46;24.20;;;10.23;;
64907;SDS011;69061;52.236;5.188;2023-05-28T05:46:12;23.70;;;9.63;;
64907;SDS011;69061;52.236;5.188;2023-05-28T05:48:39;18.98;;;9.50;;
64907;SDS011;69061;52.236;5.188;2023-05-28T05:51:06;26.55;;;10.38;;
64907;SDS011;69061;52.236;5.188;2023-05-28T05:53:33;23.58;;;9.75;;
64907;SDS011;69061;52.236;5.188;2023-05-28T05:56:07;19.98;;;10.02;;
64907;SDS011;69061;52.236;5.188;2023-05-28T05:58:35;21.75;;;9.65;;
64907;SDS011;69061;52.236;5.188;2023-05-28T06:01:03;22.70;;;9.25;;
64907;SDS011;69061;52.236;5.188;2023-05-28T06:03:30;23.05;;;10.13;;
64907;SDS011;69061;52.236;5.188;2023-05-28T06:05:57;20.23;;;9.65;;
64907;SDS011;69061;52.236;5.188;2023-05-28T06:08:23;23.60;;;9.13;;
64907;SDS011;69061;52.236;5.188;2023-05-28T06:10:50;19.05;;;8.35;;
64907;SDS011;69061;52.236;5.188;2023-05-28T06:13:17;22.95;;;9.93;;
64907;SDS011;69061;52.236;5.188;2023-05-28T06:15:44;19.63;;;8.35;;
64907;SDS011;69061;52.236;5.188;2023-05-28T06:18:11;19.70;;;8.95;;
64907;SDS011;69061;52.236;5.188;2023-05-28T06:20:38;21.95;;;9.50;;
64907;SDS011;69061;52.236;5.188;2023-05-28T06:23:05;20.35;;;9.10;;
64907;SDS011;69061;52.236;5.188;2023-05-28T06:25:32;20.80;;;8.50;;
64907;SDS011;69061;52.236;5.188;2023-05-28T06:28:00;20.70;;;9.45;;
64907;SDS011;69061;52.236;5.188;2023-05-28T06:30:26;16.55;;;8.80;;
64907;SDS011;69061;52.236;5.188;2023-05-28T06:32:55;29.95;;;9.73;;
64907;SDS011;69061;52.236;5.188;2023-05-28T06:35:22;23.10;;;10.30;;
64907;SDS011;69061;52.236;5.188;2023-05-28T06:37:48;16.13;;;8.40;;
64907;SDS011;69061;52.236;5.188;2023-05-28T06:40:15;19.38;;;9.40;;
64907;SDS011;69061;52.236;5.188;2023-05-28T06:42:42;21.25;;;9.05;;
64907;SDS011;69061;52.236;5.188;2023-05-28T06:45:08;22.77;;;9.27;;
64907;SDS011;69061;52.236;5.188;2023-05-28T06:47:36;19.10;;;9.85;;
64907;SDS011;69061;52.236;5.188;2023-05-28T06:50:04;23.42;;;9.48;;
64907;SDS011;69061;52.236;5.188;2023-05-28T06:52:32;21.90;;;8.75;;
64907;SDS011;69061;52.236;5.188;2023-05-28T06:54:58;25.17;;;9.48;;
64907;SDS011;69061;52.236;5.188;2023-05-28T06:57:25;19.85;;;8.63;;
64907;SDS011;69061;52.236;5.188;2023-05-28T06:59:52;18.23;;;8.32;;
64907;SDS011;69061;52.236;5.188;2023-05-28T07:02:18;18.48;;;7.88;;
64907;SDS011;69061;52.236;5.188;2023-05-28T07:04:45;21.73;;;9.82;;
64907;SDS011;69061;52.236;5.188;2023-05-28T07:07:14;27.83;;;9.18;;
64907;SDS011;69061;52.236;5.188;2023-05-28T07:09:40;17.15;;;8.05;;
64907;SDS011;69061;52.236;5.188;2023-05-28T07:12:08;21.17;;;9.40;;
64907;SDS011;69061;52.236;5.188;2023-05-28T07:14:35;18.80;;;8.80;;
64907;SDS011;69061;52.236;5.188;2023-05-28T07:17:02;18.23;;;8.52;;
64907;SDS011;69061;52.236;5.188;2023-05-28T07:19:29;21.70;;;9.00;;
64907;SDS011;69061;52.236;5.188;2023-05-28T07:21:56;17.48;;;8.43;;
64907;SDS011;69061;52.236;5.188;2023-05-28T07:24:24;21.23;;;9.88;;
64907;SDS011;69061;52.236;5.188;2023-05-28T07:26:50;22.73;;;9.40;;
64907;SDS011;69061;52.236;5.188;2023-05-28T07:29:17;20.88;;;8.73;;
64907;SDS011;69061;52.236;5.188;2023-05-28T07:31:44;18.67;;;9.00;;
64907;SDS011;69061;52.236;5.188;2023-05-28T07:34:11;18.55;;;8.70;;
64907;SDS011;69061;52.236;5.188;2023-05-28T07:36:37;21.90;;;8.70;;
64907;SDS011;69061;52.236;5.188;2023-05-28T07:39:04;16.15;;;7.85;;
64907;SDS011;69061;52.236;5.188;2023-05-28T07:41:32;17.67;;;8.73;;
64907;SDS011;69061;52.236;5.188;2023-05-28T07:43:59;22.38;;;9.00;;
64907;SDS011;69061;52.236;5.188;2023-05-28T07:46:26;22.67;;;8.80;;
64907;SDS011;69061;52.236;5.188;2023-05-28T07:48:52;16.27;;;8.32;;
64907;SDS011;69061;52.236;5.188;2023-05-28T07:51:19;20.50;;;8.02;;
64907;SDS011;69061;52.236;5.188;2023-05-28T07:53:46;21.35;;;7.53;;
64907;SDS011;69061;52.236;5.188;2023-05-28T07:56:12;24.10;;;9.48;;
64907;SDS011;69061;52.236;5.188;2023-05-28T07:58:43;23.90;;;9.00;;
64907;SDS011;69061;52.236;5.188;2023-05-28T08:01:10;22.25;;;8.45;;
64907;SDS011;69061;52.236;5.188;2023-05-28T08:03:36;20.83;;;8.65;;
64907;SDS011;69061;52.236;5.188;2023-05-28T08:06:03;34.30;;;8.57;;
64907;SDS011;69061;52.236;5.188;2023-05-28T08:08:30;28.65;;;10.00;;
64907;SDS011;69061;52.236;5.188;2023-05-28T08:10:56;37.45;;;9.82;;
64907;SDS011;69061;52.236;5.188;2023-05-28T08:13:23;32.25;;;9.35;;
64907;SDS011;69061;52.236;5.188;2023-05-28T08:15:52;23.13;;;8.90;;
64907;SDS011;69061;52.236;5.188;2023-05-28T08:18:18;23.38;;;8.27;;
64907;SDS011;69061;52.236;5.188;2023-05-28T08:20:45;19.10;;;8.50;;
64907;SDS011;69061;52.236;5.188;2023-05-28T08:23:12;21.00;;;9.40;;
64907;SDS011;69061;52.236;5.188;2023-05-28T08:25:39;37.80;;;10.13;;
64907;SDS011;69061;52.236;5.188;2023-05-28T08:28:06;34.10;;;9.35;;
64907;SDS011;69061;52.236;5.188;2023-05-28T08:30:34;25.80;;;7.72;;
64907;SDS011;69061;52.236;5.188;2023-05-28T08:33:03;26.40;;;9.30;;
64907;SDS011;69061;52.236;5.188;2023-05-28T08:35:29;33.08;;;9.13;;
64907;SDS011;69061;52.236;5.188;2023-05-28T08:37:56;53.63;;;11.63;;
64907;SDS011;69061;52.236;5.188;2023-05-28T08:40:22;55.92;;;12.35;;
64907;SDS011;69061;52.236;5.188;2023-05-28T08:42:49;37.60;;;9.80;;
64907;SDS011;69061;52.236;5.188;2023-05-28T08:45:16;61.55;;;13.50;;
64907;SDS011;69061;52.236;5.188;2023-05-28T08:47:42;26.75;;;9.27;;
64907;SDS011;69061;52.236;5.188;2023-05-28T08:50:11;21.42;;;8.57;;
64907;SDS011;69061;52.236;5.188;2023-05-28T08:52:41;25.55;;;8.73;;
64907;SDS011;69061;52.236;5.188;2023-05-28T08:55:10;23.95;;;8.60;;
64907;SDS011;69061;52.236;5.188;2023-05-28T08:57:36;22.70;;;8.18;;
64907;SDS011;69061;52.236;5.188;2023-05-28T09:00:04;19.40;;;8.30;;
64907;SDS011;69061;52.236;5.188;2023-05-28T09:02:33;19.27;;;8.40;;
64907;SDS011;69061;52.236;5.188;2023-05-28T09:04:59;20.08;;;8.13;;
64907;SDS011;69061;52.236;5.188;2023-05-28T09:07:27;20.67;;;8.00;;
64907;SDS011;69061;52.236;5.188;2023-05-28T09:09:54;19.05;;;7.72;;
64907;SDS011;69061;52.236;5.188;2023-05-28T09:12:22;19.27;;;8.43;;
64907;SDS011;69061;52.236;5.188;2023-05-28T09:14:49;20.67;;;8.88;;
64907;SDS011;69061;52.236;5.188;2023-05-28T09:17:16;21.20;;;8.23;;
64907;SDS011;69061;52.236;5.188;2023-05-28T09:19:49;19.90;;;9.55;;
64907;SDS011;69061;52.236;5.188;2023-05-28T09:22:16;16.15;;;7.78;;
64907;SDS011;69061;52.236;5.188;2023-05-28T09:24:49;18.88;;;9.10;;
64907;SDS011;69061;52.236;5.188;2023-05-28T09:27:15;21.00;;;8.35;;
64907;SDS011;69061;52.236;5.188;2023-05-28T09:29:44;20.42;;;9.18;;
64907;SDS011;69061;52.236;5.188;2023-05-28T09:32:11;14.93;;;8.00;;
64907;SDS011;69061;52.236;5.188;2023-05-28T09:34:44;20.75;;;8.50;;
64907;SDS011;69061;52.236;5.188;2023-05-28T09:37:12;19.73;;;9.57;;
64907;SDS011;69061;52.236;5.188;2023-05-28T09:39:42;21.95;;;8.07;;
64907;SDS011;69061;52.236;5.188;2023-05-28T09:42:10;18.52;;;8.27;;
64907;SDS011;69061;52.236;5.188;2023-05-28T09:44:38;20.45;;;8.07;;
64907;SDS011;69061;52.236;5.188;2023-05-28T09:47:13;18.85;;;8.27;;
64907;SDS011;69061;52.236;5.188;2023-05-28T09:49:41;18.48;;;8.45;;
64907;SDS011;69061;52.236;5.188;2023-05-28T09:52:09;19.60;;;8.25;;
64907;SDS011;69061;52.236;5.188;2023-05-28T09:54:43;19.75;;;7.50;;
64907;SDS011;69061;52.236;5.188;2023-05-28T09:57:13;18.02;;;8.90;;
64907;SDS011;69061;52.236;5.188;2023-05-28T09:59:41;20.75;;;9.32;;
64907;SDS011;69061;52.236;5.188;2023-05-28T10:02:14;19.45;;;8.35;;
64907;SDS011;69061;52.236;5.188;2023-05-28T10:04:52;20.60;;;9.25;;
64907;SDS011;69061;52.236;5.188;2023-05-28T10:07:21;18.60;;;8.65;;
64907;SDS011;69061;52.236;5.188;2023-05-28T10:09:50;21.92;;;9.75;;
64907;SDS011;69061;52.236;5.188;2023-05-28T10:12:22;25.35;;;9.73;;
64907;SDS011;69061;52.236;5.188;2023-05-28T10:14:51;20.38;;;8.70;;
64907;SDS011;69061;52.236;5.188;2023-05-28T10:17:18;20.70;;;8.90;;
64907;SDS011;69061;52.236;5.188;2023-05-28T10:19:46;28.15;;;10.30;;
64907;SDS011;69061;52.236;5.188;2023-05-28T10:22:14;17.30;;;8.77;;
64907;SDS011;69061;52.236;5.188;2023-05-28T10:24:42;20.73;;;9.52;;
64907;SDS011;69061;52.236;5.188;2023-05-28T10:27:12;24.80;;;8.38;;
64907;SDS011;69061;52.236;5.188;2023-05-28T10:29:41;18.65;;;9.07;;
64907;SDS011;69061;52.236;5.188;2023-05-28T10:32:09;21.77;;;9.23;;
64907;SDS011;69061;52.236;5.188;2023-05-28T10:34:39;18.95;;;8.90;;
64907;SDS011;69061;52.236;5.188;2023-05-28T10:37:06;19.27;;;9.80;;
64907;SDS011;69061;52.236;5.188;2023-05-28T10:39:38;17.52;;;7.30;;
64907;SDS011;69061;52.236;5.188;2023-05-28T10:42:05;19.48;;;7.93;;
64907;SDS011;69061;52.236;5.188;2023-05-28T10:44:49;18.95;;;9.18;;
64907;SDS011;69061;52.236;5.188;2023-05-28T10:47:31;19.20;;;9.20;;
64907;SDS011;69061;52.236;5.188;2023-05-28T10:49:59;17.20;;;9.75;;
64907;SDS011;69061;52.236;5.188;2023-05-28T10:52:26;16.38;;;7.82;;
64907;SDS011;69061;52.236;5.188;2023-05-28T10:54:53;18.83;;;8.15;;
64907;SDS011;69061;52.236;5.188;2023-05-28T10:57:20;15.25;;;8.15;;
64907;SDS011;69061;52.236;5.188;2023-05-28T10:59:49;13.77;;;8.35;;
64907;SDS011;69061;52.236;5.188;2023-05-28T11:02:18;16.63;;;9.27;;
64907;SDS011;69061;52.236;5.188;2023-05-28T11:04:49;21.05;;;8.68;;
64907;SDS011;69061;52.236;5.188;2023-05-28T11:07:18;16.45;;;9.07;;
64907;SDS011;69061;52.236;5.188;2023-05-28T11:09:48;20.92;;;8.57;;
64907;SDS011;69061;52.236;5.188;2023-05-28T11:12:17;16.73;;;8.02;;
64907;SDS011;69061;52.236;5.188;2023-05-28T11:14:45;23.77;;;9.32;;
64907;SDS011;69061;52.236;5.188;2023-05-28T11:17:15;19.13;;;8.68;;
64907;SDS011;69061;52.236;5.188;2023-05-28T11:19:42;22.08;;;8.82;;
64907;SDS011;69061;52.236;5.188;2023-05-28T11:22:10;18.73;;;9.00;;
64907;SDS011;69061;52.236;5.188;2023-05-28T11:24:49;27.50;;;9.75;;
64907;SDS011;69061;52.236;5.188;2023-05-28T11:27:21;16.67;;;9.57;;
64907;SDS011;69061;52.236;5.188;2023-05-28T11:29:48;18.58;;;8.98;;
64907;SDS011;69061;52.236;5.188;2023-05-28T11:32:18;20.58;;;9.38;;
64907;SDS011;69061;52.236;5.188;2023-05-28T11:34:47;18.73;;;8.65;;
64907;SDS011;69061;52.236;5.188;2023-05-28T11:37:14;18.20;;;9.10;;
64907;SDS011;69061;52.236;5.188;2023-05-28T11:39:47;19.42;;;8.80;;
64907;SDS011;69061;52.236;5.188;2023-05-28T11:42:14;31.80;;;10.10;;
64907;SDS011;69061;52.236;5.188;2023-05-28T11:44:42;31.20;;;10.00;;
64907;SDS011;69061;52.236;5.188;2023-05-28T11:47:10;20.67;;;8.30;;
64907;SDS011;69061;52.236;5.188;2023-05-28T11:49:38;24.73;;;9.25;;
64907;SDS011;69061;52.236;5.188;2023-05-28T11:52:05;19.83;;;8.98;;
64907;SDS011;69061;52.236;5.188;2023-05-28T11:54:36;18.80;;;9.48;;
64907;SDS011;69061;52.236;5.188;2023-05-28T11:57:04;18.70;;;9.27;;
64907;SDS011;69061;52.236;5.188;2023-05-28T11:59:32;18.05;;;9.10;;
64907;SDS011;69061;52.236;5.188;2023-05-28T12:02:09;18.73;;;9.13;;
64907;SDS011;69061;52.236;5.188;2023-05-28T12:04:38;18.08;;;9.15;;
64907;SDS011;69061;52.236;5.188;2023-05-28T12:07:04;17.42;;;9.48;;
64907;SDS011;69061;52.236;5.188;2023-05-28T12:09:31;18.92;;;9.60;;
64907;SDS011;69061;52.236;5.188;2023-05-28T12:12:05;15.77;;;8.15;;
64907;SDS011;69061;52.236;5.188;2023-05-28T12:14:35;21.25;;;9.77;;
64907;SDS011;69061;52.236;5.188;2023-05-28T12:17:05;22.30;;;9.70;;
64907;SDS011;69061;52.236;5.188;2023-05-28T12:19:33;19.63;;;9.10;;
64907;SDS011;69061;52.236;5.188;2023-05-28T12:22:03;25.65;;;9.77;;
64907;SDS011;69061;52.236;5.188;2023-05-28T12:24:31;21.50;;;10.38;;
64907;SDS011;69061;52.236;5.188;2023-05-28T12:26:57;23.58;;;9.75;;
64907;SDS011;69061;52.236;5.188;2023-05-28T12:29:24;15.07;;;8.63;;
64907;SDS011;69061;52.236;5.188;2023-05-28T12:31:57;18.73;;;8.50;;
64907;SDS011;69061;52.236;5.188;2023-05-28T12:34:24;18.90;;;8.85;;
64907;SDS011;69061;52.236;5.188;2023-05-28T12:36:51;20.17;;;8.77;;
64907;SDS011;69061;52.236;5.188;2023-05-28T12:39:19;15.32;;;8.65;;
64907;SDS011;69061;52.236;5.188;2023-05-28T12:41:46;18.35;;;8.45;;
64907;SDS011;69061;52.236;5.188;2023-05-28T12:44:13;17.40;;;8.02;;
64907;SDS011;69061;52.236;5.188;2023-05-28T12:46:40;23.20;;;8.57;;
64907;SDS011;69061;52.236;5.188;2023-05-28T12:49:07;18.95;;;9.00;;
64907;SDS011;69061;52.236;5.188;2023-05-28T12:51:34;13.10;;;8.10;;
64907;SDS011;69061;52.236;5.188;2023-05-28T12:54:00;19.52;;;8.35;;
64907;SDS011;69061;52.236;5.188;2023-05-28T12:56:28;16.88;;;8.07;;
64907;SDS011;69061;52.236;5.188;2023-05-28T12:58:55;16.30;;;8.48;;
64907;SDS011;69061;52.236;5.188;2023-05-28T13:01:21;16.25;;;8.07;;
64907;SDS011;69061;52.236;5.188;2023-05-28T13:03:48;20.73;;;9.10;;
64907;SDS011;69061;52.236;5.188;2023-05-28T13:06:16;15.02;;;9.02;;
64907;SDS011;69061;52.236;5.188;2023-05-28T13:08:42;18.40;;;7.72;;
64907;SDS011;69061;52.236;5.188;2023-05-28T13:11:09;13.68;;;8.18;;
64907;SDS011;69061;52.236;5.188;2023-05-28T13:13:38;16.38;;;8.82;;
64907;SDS011;69061;52.236;5.188;2023-05-28T13:16:05;16.23;;;8.80;;
64907;SDS011;69061;52.236;5.188;2023-05-28T13:18:31;16.73;;;8.70;;
64907;SDS011;69061;52.236;5.188;2023-05-28T13:20:58;13.18;;;7.82;;
64907;SDS011;69061;52.236;5.188;2023-05-28T13:23:25;14.73;;;7.90;;
64907;SDS011;69061;52.236;5.188;2023-05-28T13:25:51;18.73;;;9.48;;
64907;SDS011;69061;52.236;5.188;2023-05-28T13:28:18;16.23;;;9.40;;
64907;SDS011;69061;52.236;5.188;2023-05-28T13:30:46;13.80;;;8.45;;
64907;SDS011;69061;52.236;5.188;2023-05-28T13:33:13;12.70;;;8.32;;
64907;SDS011;69061;52.236;5.188;2023-05-28T13:35:40;15.63;;;9.02;;
64907;SDS011;69061;52.236;5.188;2023-05-28T13:38:06;16.75;;;8.85;;
64907;SDS011;69061;52.236;5.188;2023-05-28T13:40:33;16.23;;;8.65;;
64907;SDS011;69061;52.236;5.188;2023-05-28T13:42:59;14.80;;;9.13;;
64907;SDS011;69061;52.236;5.188;2023-05-28T13:45:26;12.68;;;8.02;;
64907;SDS011;69061;52.236;5.188;2023-05-28T13:47:55;14.90;;;8.88;;
64907;SDS011;69061;52.236;5.188;2023-05-28T13:50:21;14.20;;;7.97;;
64907;SDS011;69061;52.236;5.188;2023-05-28T13:52:48;13.48;;;8.75;;
64907;SDS011;69061;52.236;5.188;2023-05-28T13:55:15;17.02;;;8.73;;
64907;SDS011;69061;52.236;5.188;2023-05-28T13:57:43;14.65;;;8.05;;
64907;SDS011;69061;52.236;5.188;2023-05-28T14:00:10;12.40;;;8.20;;
64907;SDS011;69061;52.236;5.188;2023-05-28T14:02:38;15.07;;;8.20;;
64907;SDS011;69061;52.236;5.188;2023-05-28T14:05:07;13.48;;;8.30;;
64907;SDS011;69061;52.236;5.188;2023-05-28T14:07:34;15.38;;;7.82;;
64907;SDS011;69061;52.236;5.188;2023-05-28T14:10:01;13.60;;;7.07;;
64907;SDS011;69061;52.236;5.188;2023-05-28T14:12:27;13.60;;;6.97;;
64907;SDS011;69061;52.236;5.188;2023-05-28T14:14:54;11.10;;;6.90;;
64907;SDS011;69061;52.236;5.188;2023-05-28T14:17:20;15.02;;;6.93;;
64907;SDS011;69061;52.236;5.188;2023-05-28T14:19:47;10.75;;;6.43;;
64907;SDS011;69061;52.236;5.188;2023-05-28T14:22:15;13.43;;;7.25;;
64907;SDS011;69061;52.236;5.188;2023-05-28T14:24:41;12.20;;;6.18;;
64907;SDS011;69061;52.236;5.188;2023-05-28T14:27:08;12.82;;;5.82;;
64907;SDS011;69061;52.236;5.188;2023-05-28T14:29:35;9.63;;;6.03;;
64907;SDS011;69061;52.236;5.188;2023-05-28T14:32:01;13.10;;;6.40;;
64907;SDS011;69061;52.236;5.188;2023-05-28T14:34:28;16.23;;;5.88;;